This is the latest recevied weather packets stored in our database for station/object M0XDC. If no packets are shown the sender has not sent any weather packets the latest 10 day(s).
| Time | Temp. | Humidity | Pressure | Rain* | Wind** | Luminosity | Snow |
|---|---|---|---|---|---|---|---|
| 1777884273 | 12.22° C | 83% | 1012.4 hPa | 0 mm | - | - | - |
| 1777882473 | 11.67° C | 84% | 1012 hPa | 0 mm | - | - | - |
| 1777880673 | 11.67° C | 85% | 1011.9 hPa | 0 mm | - | - | - |
| 1777878873 | 11.67° C | 85% | 1011.6 hPa | 0 mm | - | - | - |
| 1777877073 | 11.11° C | 86% | 1011.3 hPa | 0 mm | - | - | - |
| 1777875273 | 11.11° C | 88% | 1010.8 hPa | 0 mm | - | - | - |
| 1777873473 | 11.11° C | 88% | 1010.7 hPa | 0 mm | - | - | - |
| 1777866305 | 11.11° C | 90% | 1009.8 hPa | 0 mm | - | - | - |
| 1777866273 | 11.11° C | 90% | 1009.9 hPa | 0 mm | - | - | - |
| 1777862705 | 11.11° C | 90% | 1009.7 hPa | 0 mm | - | - | - |
| 1777860003 | 11.11° C | 89% | 1009.6 hPa | 0 mm | - | - | - |
| 1777857440 | 11.67° C | 86% | 1009.6 hPa | 0 mm | - | - | - |
| 1777855505 | 12.22° C | 82% | 1009.4 hPa | 0 mm | - | - | - |
| 1777848305 | 14.44° C | 73% | 1009.2 hPa | 0 mm | - | - | - |
| 1777847405 | 15° C | 69% | 1008.7 hPa | 0 mm | - | - | - |
| 1777846473 | 15° C | 69% | 1008.8 hPa | 0 mm | - | - | - |
| 1777844673 | 15° C | 70% | 1008.9 hPa | 0 mm | - | - | - |
| 1777842873 | 15° C | 68% | 1008.6 hPa | 0 mm | - | - | - |
| 1777841073 | 15° C | 69% | 1008.5 hPa | 0 mm | - | - | - |
| 1777839273 | 15.56° C | 67% | 1008.2 hPa | 0 mm | - | - | - |
| 1777837473 | 15.56° C | 66% | 1008 hPa | 0 mm | - | - | - |
| 1777833905 | 17.78° C | 60% | 1007.2 hPa | 0 mm | - | - | - |
| 1777827603 | 19.44° C | 54% | 1006.9 hPa | 0 mm | - | - | - |
| 1777825805 | 20° C | 56% | 1006.7 hPa | 0 mm | - | - | - |
| 1777824005 | 18.89° C | 56% | 1006.7 hPa | 0 mm | - | - | - |
* Rain latest hour (hover to see other rain measurements)
** Current wind speed in m/s (hover to see current wind gust speed)